Johann Essberger — CQKG — position and weather

sailwx.info

Track history (hours):
 
Tides and Currents Weather Stations Pressure Air Temp Water Temp Dewpoint Dewpoint Depression Visibility Wind Speed Wind Dir Waves Ship Positions

Johann Essberger

Last reported at 2017-May-24 11:18 UTC. Time now 2017-May-24 13:32 UTC.
Position N 53°30' E 005°09'.

Length 98 m; draft 7 m.

Type: Ship (hazmat cat B). MMSI: 255804460.

Date/timePositionNaut miles runAvg speedWind from/ knotsBaromVisibWave heightAir tempDewpointWater temp
2017-May-24 11:18N 53°30' E 005°09'412.0
2017-May-24 10:56N 53°28' E 005°02'512.0
2017-May-24 10:30N 53°27' E 004°54'2311.1
2017-May-24 08:23N 53°08' E 004°30'511.9
2017-May-24 08:00N 53°04' E 004°26'612.3
2017-May-24 07:30N 52°59' E 004°21'612.2
2017-May-24 07:00N 52°54' E 004°17'612.1
2017-May-24 06:30N 52°48' E 004°12'612.6
2017-May-24 06:00N 52°43' E 004°06'612.2
2017-May-24 05:30N 52°38' E 004°01'612.4
2017-May-24 04:59N 52°32' E 003°56'612.6
2017-May-24 04:30N 52°26' E 003°54'713.0
2017-May-24 03:59N 52°20' E 003°52'613.0
2017-May-24 03:30N 52°13' E 003°53'713.4
2017-May-24 03:00N 52°07' E 003°55'611.1
2017-May-24 02:30N 52°01' E 003°58'612.8
2017-May-24 02:00N 51°59' E 004°07'611.8
2017-May-24 01:30N 51°55' E 004°15'3 5.7
2017-May-24 01:01N 51°53' E 004°18'0 0.0
2017-May-24 00:30N 51°53' E 004°18'0 0.0
2017-May-24 00:00N 51°53' E 004°18'0 0.0
2017-May-23 23:24N 51°53' E 004°18'0 0.0
2017-May-23 21:25N 51°53' E 004°18'0 0.0
2017-May-23 21:00N 51°53' E 004°18'0 0.0
2017-May-23 20:30N 51°53' E 004°18'0 0.0
2017-May-23 20:00N 51°53' E 004°18'0 0.0
2017-May-23 16:36N 51°53' E 004°18'0 0.0
2017-May-23 16:19N 51°53' E 004°18'0 0.0
2017-May-23 14:13N 51°53' E 004°18'0 0.0
2017-May-23 13:25N 51°53' E 004°18'0 0.0
2017-May-23 11:51N 51°53' E 004°18'0 0.0
2017-May-23 09:05N 51°53' E 004°18'0 0.0
2017-May-23 07:21N 51°53' E 004°18'0 0.0
2017-May-23 07:00N 51°53' E 004°18'1 1.7
2017-May-23 06:30N 51°54' E 004°18'510.5
2017-May-23 06:00N 51°57' E 004°11'612.0
2017-May-23 05:30N 51°59' E 004°02'713.5
2017-May-23 05:00N 52°01' E 003°52'612.0
2017-May-23 04:30N 52°03' E 003°42'711.4
2017-May-23 03:55N 52°07' E 003°33'511.7
2017-May-23 03:29N 52°09' E 003°26'610.9
2017-May-23 02:53N 52°12' E 003°17'410.1
2017-May-23 02:29N 52°15' E 003°11'5 9.0
2017-May-23 01:58N 52°17' E 003°05'33 5.1
2017-May-22 19:37N 51°44' E 003°06'213.7
2017-May-22 19:29N 51°44' E 003°09'611.7
2017-May-22 18:59N 51°41' E 003°17'612.5
2017-May-22 18:30N 51°36' E 003°23'611.9
2017-May-22 18:00N 51°31' E 003°27'611.8
2017-May-22 17:30N 51°27' E 003°34'511.1
2017-May-22 17:00N 51°25' E 003°42'714.0
2017-May-22 16:30N 51°21' E 003°51'714.9
2017-May-22 16:00N 51°26' E 003°59'713.7
2017-May-22 15:30N 51°22' E 004°08'611.3
2017-May-22 15:00N 51°20' E 004°16'4 4.0
2017-May-22 14:00N 51°17' E 004°20'0 0.0
2017-May-22 13:30N 51°17' E 004°20'0 0.0
2017-May-22 13:00N 51°17' E 004°20'1 1.5
2017-May-22 12:30N 51°16' E 004°21'1 2.0
2017-May-22 12:01N 51°15' E 004°22'0 0.0
2017-May-22 11:28N 51°15' E 004°22'0 0.0
2017-May-22 10:58N 51°15' E 004°22'0 0.0
2017-May-22 10:28N 51°15' E 004°22'0 0.0
2017-May-22 09:58N 51°15' E 004°22'0 0.0
2017-May-22 09:28N 51°15' E 004°22'0 0.0
2017-May-22 08:58N 51°15' E 004°22'0 0.0
2017-May-22 08:19N 51°15' E 004°22'0 0.0
2017-May-22 07:55N 51°15' E 004°22'0 0.0
2017-May-22 07:28N 51°15' E 004°22'0 0.0
2017-May-22 06:55N 51°15' E 004°22'0 0.0
2017-May-22 06:28N 51°15' E 004°22'0 0.0
2017-May-22 05:58N 51°15' E 004°22'0 0.0
2017-May-22 05:28N 51°15' E 004°22'0 0.0
2017-May-22 04:55N 51°15' E 004°22'0 0.0
2017-May-22 04:28N 51°15' E 004°22'0 0.0
2017-May-22 03:58N 51°15' E 004°22'0 0.0
2017-May-22 03:28N 51°15' E 004°22'0 0.0
2017-May-22 02:58N 51°15' E 004°22'0 0.0
2017-May-22 02:28N 51°15' E 004°22'0 0.0
2017-May-22 01:55N 51°15' E 004°22'0 0.0
2017-May-22 01:25N 51°15' E 004°22'0 0.0
2017-May-22 00:58N 51°15' E 004°22'0 0.0
2017-May-22 00:28N 51°15' E 004°22'0 0.0
2017-May-21 23:58N 51°15' E 004°22'0 0.0
2017-May-21 23:22N 51°15' E 004°22'0 0.0
2017-May-21 22:58N 51°15' E 004°22'0 0.0
2017-May-21 22:28N 51°15' E 004°22'0 0.0
2017-May-21 21:55N 51°15' E 004°22'0 0.0
2017-May-21 21:28N 51°15' E 004°22'0 0.0
2017-May-21 20:55N 51°15' E 004°22'0 0.0
2017-May-21 20:25N 51°15' E 004°22'0 0.0
2017-May-21 19:58N 51°15' E 004°22'0 0.0
2017-May-21 19:19N 51°15' E 004°22'0 0.0
2017-May-21 18:58N 51°15' E 004°22'0 0.0
2017-May-21 18:22N 51°15' E 004°22'0 0.0
2017-May-21 17:58N 51°15' E 004°22'0 0.0
2017-May-21 17:28N 51°15' E 004°22'0 0.0
2017-May-21 16:58N 51°15' E 004°22'0 0.0
2017-May-21 16:28N 51°15' E 004°22'0 0.0
2017-May-21 15:58N 51°15' E 004°22'0 0.0
2017-May-21 15:28N 51°15' E 004°22'0 0.0
2017-May-21 14:49N 51°15' E 004°22'0 0.0
2017-May-21 14:25N 51°15' E 004°22'0 0.0
2017-May-21 13:28N 51°15' E 004°22'0 0.0
2017-May-21 12:55N 51°15' E 004°22'0 0.0
2017-May-21 12:25N 51°15' E 004°22'0 0.0
2017-May-21 11:58N 51°15' E 004°22'0 0.0
2017-May-21 11:25N 51°15' E 004°22'0 0.0
2017-May-21 10:58N 51°15' E 004°22'0 0.0
2017-May-21 10:28N 51°15' E 004°22'0 0.0
2017-May-21 09:55N 51°15' E 004°22'0 0.0
2017-May-21 09:28N 51°15' E 004°22'0 0.0
2017-May-21 08:55N 51°15' E 004°22'0 0.0
2017-May-21 08:28N 51°15' E 004°22'0 0.0
2017-May-21 07:58N 51°15' E 004°22'0 0.0
2017-May-21 07:28N 51°15' E 004°22'0 0.0
2017-May-21 06:52N 51°15' E 004°22'0 0.0
2017-May-21 06:19N 51°15' E 004°22'0 0.0
2017-May-21 05:58N 51°15' E 004°22'0 0.0
2017-May-21 05:25N 51°15' E 004°22'0 0.0
2017-May-21 04:58N 51°15' E 004°22'0 0.0
2017-May-21 04:28N 51°15' E 004°22'0 0.0
2017-May-21 03:58N 51°15' E 004°22'0 0.0
2017-May-21 03:28N 51°15' E 004°22'0 0.0
2017-May-21 02:55N 51°15' E 004°22'0 0.0
2017-May-21 02:28N 51°15' E 004°22'0 0.0
2017-May-21 01:58N 51°15' E 004°22'0 0.0
2017-May-21 01:25N 51°15' E 004°22'0 0.0
2017-May-21 00:58N 51°15' E 004°22'0 0.0
2017-May-21 00:28N 51°15' E 004°22'0 0.0
2017-May-20 23:58N 51°15' E 004°22'0 0.0
2017-May-20 23:28N 51°15' E 004°22'0 0.0
2017-May-20 22:58N 51°15' E 004°22'0 0.0
2017-May-20 22:25N 51°15' E 004°22'0 0.0
2017-May-20 21:55N 51°15' E 004°22'0 0.0
2017-May-20 21:19N 51°15' E 004°22'0 0.0
2017-May-20 20:55N 51°15' E 004°22'0 0.0
2017-May-20 20:25N 51°15' E 004°22'0 0.0
2017-May-20 19:49N 51°15' E 004°22'0 0.0
2017-May-20 19:25N 51°15' E 004°22'0 0.0
2017-May-20 18:58N 51°15' E 004°22'0 0.0
2017-May-20 18:28N 51°15' E 004°22'0 0.0
2017-May-20 17:58N 51°15' E 004°22'0 0.0
2017-May-20 17:28N 51°15' E 004°22'0 0.0
2017-May-20 16:58N 51°15' E 004°22'0 0.0
2017-May-20 16:28N 51°15' E 004°22'0 0.0
2017-May-20 15:58N 51°15' E 004°22'0 0.0
2017-May-20 15:28N 51°15' E 004°22'0 0.0
2017-May-20 14:58N 51°15' E 004°22'0 0.0
2017-May-20 13:58N 51°15' E 004°22'0 0.0
2017-May-20 13:28N 51°15' E 004°22'0 0.0
2017-May-20 12:58N 51°15' E 004°22'0 0.0
2017-May-20 12:28N 51°15' E 004°22'0 0.0
2017-May-20 11:58N 51°15' E 004°22'0 0.0
2017-May-20 11:25N 51°15' E 004°22'0 0.0
2017-May-20 10:55N 51°15' E 004°22'0 0.0
2017-May-20 10:28N 51°15' E 004°22'0 0.0
2017-May-20 09:55N 51°15' E 004°22'0 0.0
2017-May-20 09:28N 51°15' E 004°22'0 0.0
2017-May-20 08:55N 51°15' E 004°22'0 0.0
2017-May-20 08:28N 51°15' E 004°22'0 0.0
2017-May-20 07:58N 51°15' E 004°22'0 0.0
2017-May-20 07:28N 51°15' E 004°22'0 0.0
2017-May-20 06:49N 51°15' E 004°22'0 0.0
2017-May-20 06:22N 51°15' E 004°22'0 0.0
2017-May-20 05:58N 51°15' E 004°22'0 0.0
2017-May-20 05:28N 51°15' E 004°22'0 0.0
2017-May-20 04:58N 51°15' E 004°22'0 0.0
2017-May-20 04:25N 51°15' E 004°22'0 0.0
2017-May-20 03:55N 51°15' E 004°22'0 0.0
2017-May-20 03:25N 51°15' E 004°22'0 0.0
2017-May-20 02:55N 51°15' E 004°22'0 0.0
2017-May-20 02:25N 51°15' E 004°22'0 0.0
2017-May-20 01:55N 51°15' E 004°22'0 0.8
2017-May-20 01:30N 51°16' E 004°21'2 4.8
2017-May-20 01:00N 51°18' E 004°20'0 0.0
2017-May-20 00:29N 51°18' E 004°20'0 0.0
2017-May-18 19:32N 51°18' E 004°20'0 0.0
2017-May-18 19:30N 51°18' E 004°20'1 2.0
2017-May-18 19:00N 51°17' E 004°21'0 0.9
2017-May-18 18:31N 51°17' E 004°20'0 0.0
2017-May-18 18:00N 51°17' E 004°20'0 0.8
2017-May-18 17:31N 51°17' E 004°20'3 6.1
2017-May-18 17:00N 51°14' E 004°22'3 6.5
2017-May-18 16:30N 51°11' E 004°20'2 4.6
2017-May-18 16:00N 51°09' E 004°20'0 0.0
2017-May-18 06:31N 51°09' E 004°20'0 0.2
2017-May-18 06:00N 51°09' E 004°20'4 7.0
2017-May-18 05:30N 51°12' E 004°22'2 4.5
2017-May-18 05:00N 51°14' E 004°21'5 9.3
2017-May-18 04:30N 51°18' E 004°17'612.2
2017-May-18 04:01N 51°24' E 004°12'612.7
2017-May-18 03:30N 51°23' E 004°02'3 6.9
2017-May-18 03:00N 51°23' E 003°57'713.8
2017-May-18 02:31N 51°22' E 003°46'713.1
2017-May-18 02:01N 51°26' E 003°39'611.2
2017-May-18 01:30N 51°29' E 003°30'714.0
2017-May-18 01:00N 51°34' E 003°24'713.3
2017-May-18 00:29N 51°40' E 003°18'24 2.7
2017-May-17 15:35N 52°03' E 003°29'112.3
2017-May-17 15:28N 52°03' E 003°32'612.4
2017-May-17 15:00N 52°03' E 003°41'1212.5
2017-May-17 14:00N 52°00' E 004°00'713.3
2017-May-17 13:31N 51°57' E 004°10'612.8
2017-May-17 13:00N 51°53' E 004°18'2 3.4
2017-May-17 12:30N 51°52' E 004°16'0 0.0
2017-May-17 11:55N 51°52' E 004°16'0 0.0
2017-May-16 13:39N 51°52' E 004°16'0 0.0
2017-May-16 13:30N 51°52' E 004°16'1 1.2
2017-May-16 13:01N 51°53' E 004°17'2 4.0
2017-May-16 12:30N 51°55' E 004°15'611.2
2017-May-16 12:00N 51°58' E 004°08'611.7
2017-May-16 11:30N 51°60' E 003°59'712.5
2017-May-16 10:59N 52°03' E 003°49'613.4
2017-May-16 10:30N 52°09' E 003°46'2 0.2
2017-May-16 01:53N 52°10' E 003°44'0 0.0
2017-May-16 01:29N 52°10' E 003°44'0 0.0
2017-May-16 00:59N 52°10' E 003°44'0 0.0
2017-May-16 00:29N 52°10' E 003°44'0 0.0
2017-May-15 23:59N 52°10' E 003°44'0 0.0
2017-May-15 23:26N 52°10' E 003°44'0 0.0
2017-May-15 22:59N 52°10' E 003°44'0 0.0
2017-May-15 22:26N 52°10' E 003°44'2 0.3
2017-May-15 17:12N 52°11' E 003°45'7 8.1
2017-May-15 16:23N 52°18' E 003°47'5 9.1
2017-May-15 15:51N 52°23' E 003°49'5 9.7
2017-May-15 15:18N 52°28' E 003°51'1512.1
2017-May-15 14:04N 52°43' E 003°55'1111.8
2017-May-15 13:09N 52°53' E 003°59'711.2
2017-May-15 12:30N 52°60' E 004°04'611.6
2017-May-15 12:00N 53°04' E 004°11'15012.1
2017-May-14 23:39N 54°01' E 008°04'611.5
2017-May-14 23:10N 54°00' E 008°13'1211.2
2017-May-14 22:04N 53°58' E 008°34'112.8
2017-May-14 21:58N 53°58' E 008°36'714.0
2017-May-14 21:30N 53°53' E 008°43'714.6
2017-May-14 21:00N 53°51' E 008°55'815.7
2017-May-14 20:30N 53°53' E 009°08'1 1.8
2017-May-14 20:00N 53°54' E 009°09'1 1.6
2017-May-14 19:30N 53°54' E 009°10'0 0.6
2017-May-14 19:00N 53°54' E 009°10'2 4.6
2017-May-14 18:30N 53°56' E 009°13'4 7.3
2017-May-14 18:00N 53°59' E 009°17'4 8.2
2017-May-14 17:30N 54°03' E 009°18'  
Track history (hours):
 
Tides and Currents Weather Stations Pressure Air Temp Water Temp Dewpoint Dewpoint Depression Visibility Wind Speed Wind Dir Waves Ship Positions

Johann Essberger

Last reported at 2017-May-24 11:18 UTC. Time now 2017-May-24 13:32 UTC.
Position N 53°30' E 005°09'.

Length 98 m; draft 7 m.

Type: Ship (hazmat cat B). MMSI: 255804460.

Date/timePositionNaut miles runAvg speedWind from/ knotsBaromVisibWave heightAir tempDewpointWater temp
2017-May-24 11:18N 53°30' E 005°09'412.0
2017-May-24 10:56N 53°28' E 005°02'512.0
2017-May-24 10:30N 53°27' E 004°54'2311.1
2017-May-24 08:23N 53°08' E 004°30'511.9
2017-May-24 08:00N 53°04' E 004°26'612.3
2017-May-24 07:30N 52°59' E 004°21'612.2
2017-May-24 07:00N 52°54' E 004°17'612.1
2017-May-24 06:30N 52°48' E 004°12'612.6
2017-May-24 06:00N 52°43' E 004°06'612.2
2017-May-24 05:30N 52°38' E 004°01'612.4
2017-May-24 04:59N 52°32' E 003°56'612.6
2017-May-24 04:30N 52°26' E 003°54'713.0
2017-May-24 03:59N 52°20' E 003°52'613.0
2017-May-24 03:30N 52°13' E 003°53'713.4
2017-May-24 03:00N 52°07' E 003°55'611.1
2017-May-24 02:30N 52°01' E 003°58'612.8
2017-May-24 02:00N 51°59' E 004°07'611.8
2017-May-24 01:30N 51°55' E 004°15'3 5.7
2017-May-24 01:01N 51°53' E 004°18'0 0.0
2017-May-24 00:30N 51°53' E 004°18'0 0.0
2017-May-24 00:00N 51°53' E 004°18'0 0.0
2017-May-23 23:24N 51°53' E 004°18'0 0.0
2017-May-23 21:25N 51°53' E 004°18'0 0.0
2017-May-23 21:00N 51°53' E 004°18'0 0.0
2017-May-23 20:30N 51°53' E 004°18'0 0.0
2017-May-23 20:00N 51°53' E 004°18'0 0.0
2017-May-23 16:36N 51°53' E 004°18'0 0.0
2017-May-23 16:19N 51°53' E 004°18'0 0.0
2017-May-23 14:13N 51°53' E 004°18'0 0.0
2017-May-23 13:25N 51°53' E 004°18'0 0.0
2017-May-23 11:51N 51°53' E 004°18'0 0.0
2017-May-23 09:05N 51°53' E 004°18'0 0.0
2017-May-23 07:21N 51°53' E 004°18'0 0.0
2017-May-23 07:00N 51°53' E 004°18'1 1.7
2017-May-23 06:30N 51°54' E 004°18'510.5
2017-May-23 06:00N 51°57' E 004°11'612.0
2017-May-23 05:30N 51°59' E 004°02'713.5
2017-May-23 05:00N 52°01' E 003°52'612.0
2017-May-23 04:30N 52°03' E 003°42'711.4
2017-May-23 03:55N 52°07' E 003°33'511.7
2017-May-23 03:29N 52°09' E 003°26'610.9
2017-May-23 02:53N 52°12' E 003°17'410.1
2017-May-23 02:29N 52°15' E 003°11'5 9.0
2017-May-23 01:58N 52°17' E 003°05'33 5.1
2017-May-22 19:37N 51°44' E 003°06'213.7
2017-May-22 19:29N 51°44' E 003°09'611.7
2017-May-22 18:59N 51°41' E 003°17'612.5
2017-May-22 18:30N 51°36' E 003°23'611.9
2017-May-22 18:00N 51°31' E 003°27'611.8
2017-May-22 17:30N 51°27' E 003°34'511.1
2017-May-22 17:00N 51°25' E 003°42'714.0
2017-May-22 16:30N 51°21' E 003°51'714.9
2017-May-22 16:00N 51°26' E 003°59'713.7
2017-May-22 15:30N 51°22' E 004°08'611.3
2017-May-22 15:00N 51°20' E 004°16'4 4.0
2017-May-22 14:00N 51°17' E 004°20'0 0.0
2017-May-22 13:30N 51°17' E 004°20'0 0.0
2017-May-22 13:00N 51°17' E 004°20'1 1.5
2017-May-22 12:30N 51°16' E 004°21'1 2.0
2017-May-22 12:01N 51°15' E 004°22'0 0.0
2017-May-22 11:28N 51°15' E 004°22'0 0.0
2017-May-22 10:58N 51°15' E 004°22'0 0.0
2017-May-22 10:28N 51°15' E 004°22'0 0.0
2017-May-22 09:58N 51°15' E 004°22'0 0.0
2017-May-22 09:28N 51°15' E 004°22'0 0.0
2017-May-22 08:58N 51°15' E 004°22'0 0.0
2017-May-22 08:19N 51°15' E 004°22'0 0.0
2017-May-22 07:55N 51°15' E 004°22'0 0.0
2017-May-22 07:28N 51°15' E 004°22'0 0.0
2017-May-22 06:55N 51°15' E 004°22'0 0.0
2017-May-22 06:28N 51°15' E 004°22'0 0.0
2017-May-22 05:58N 51°15' E 004°22'0 0.0
2017-May-22 05:28N 51°15' E 004°22'0 0.0
2017-May-22 04:55N 51°15' E 004°22'0 0.0
2017-May-22 04:28N 51°15' E 004°22'0 0.0
2017-May-22 03:58N 51°15' E 004°22'0 0.0
2017-May-22 03:28N 51°15' E 004°22'0 0.0
2017-May-22 02:58N 51°15' E 004°22'0 0.0
2017-May-22 02:28N 51°15' E 004°22'0 0.0
2017-May-22 01:55N 51°15' E 004°22'0 0.0
2017-May-22 01:25N 51°15' E 004°22'0 0.0
2017-May-22 00:58N 51°15' E 004°22'0 0.0
2017-May-22 00:28N 51°15' E 004°22'0 0.0
2017-May-21 23:58N 51°15' E 004°22'0 0.0
2017-May-21 23:22N 51°15' E 004°22'0 0.0
2017-May-21 22:58N 51°15' E 004°22'0 0.0
2017-May-21 22:28N 51°15' E 004°22'0 0.0
2017-May-21 21:55N 51°15' E 004°22'0 0.0
2017-May-21 21:28N 51°15' E 004°22'0 0.0
2017-May-21 20:55N 51°15' E 004°22'0 0.0
2017-May-21 20:25N 51°15' E 004°22'0 0.0
2017-May-21 19:58N 51°15' E 004°22'0 0.0
2017-May-21 19:19N 51°15' E 004°22'0 0.0
2017-May-21 18:58N 51°15' E 004°22'0 0.0
2017-May-21 18:22N 51°15' E 004°22'0 0.0
2017-May-21 17:58N 51°15' E 004°22'0 0.0
2017-May-21 17:28N 51°15' E 004°22'0 0.0
2017-May-21 16:58N 51°15' E 004°22'0 0.0
2017-May-21 16:28N 51°15' E 004°22'0 0.0
2017-May-21 15:58N 51°15' E 004°22'0 0.0
2017-May-21 15:28N 51°15' E 004°22'0 0.0
2017-May-21 14:49N 51°15' E 004°22'0 0.0
2017-May-21 14:25N 51°15' E 004°22'0 0.0
2017-May-21 13:28N 51°15' E 004°22'0 0.0
2017-May-21 12:55N 51°15' E 004°22'0 0.0
2017-May-21 12:25N 51°15' E 004°22'0 0.0
2017-May-21 11:58N 51°15' E 004°22'0 0.0
2017-May-21 11:25N 51°15' E 004°22'0 0.0
2017-May-21 10:58N 51°15' E 004°22'0 0.0
2017-May-21 10:28N 51°15' E 004°22'0 0.0
2017-May-21 09:55N 51°15' E 004°22'0 0.0
2017-May-21 09:28N 51°15' E 004°22'0 0.0
2017-May-21 08:55N 51°15' E 004°22'0 0.0
2017-May-21 08:28N 51°15' E 004°22'0 0.0
2017-May-21 07:58N 51°15' E 004°22'0 0.0
2017-May-21 07:28N 51°15' E 004°22'0 0.0
2017-May-21 06:52N 51°15' E 004°22'0 0.0
2017-May-21 06:19N 51°15' E 004°22'0 0.0
2017-May-21 05:58N 51°15' E 004°22'0 0.0
2017-May-21 05:25N 51°15' E 004°22'0 0.0
2017-May-21 04:58N 51°15' E 004°22'0 0.0
2017-May-21 04:28N 51°15' E 004°22'0 0.0
2017-May-21 03:58N 51°15' E 004°22'0 0.0
2017-May-21 03:28N 51°15' E 004°22'0 0.0
2017-May-21 02:55N 51°15' E 004°22'0 0.0
2017-May-21 02:28N 51°15' E 004°22'0 0.0
2017-May-21 01:58N 51°15' E 004°22'0 0.0
2017-May-21 01:25N 51°15' E 004°22'0 0.0
2017-May-21 00:58N 51°15' E 004°22'0 0.0
2017-May-21 00:28N 51°15' E 004°22'0 0.0
2017-May-20 23:58N 51°15' E 004°22'0 0.0
2017-May-20 23:28N 51°15' E 004°22'0 0.0
2017-May-20 22:58N 51°15' E 004°22'0 0.0
2017-May-20 22:25N 51°15' E 004°22'0 0.0
2017-May-20 21:55N 51°15' E 004°22'0 0.0
2017-May-20 21:19N 51°15' E 004°22'0 0.0
2017-May-20 20:55N 51°15' E 004°22'0 0.0
2017-May-20 20:25N 51°15' E 004°22'0 0.0
2017-May-20 19:49N 51°15' E 004°22'0 0.0
2017-May-20 19:25N 51°15' E 004°22'0 0.0
2017-May-20 18:58N 51°15' E 004°22'0 0.0
2017-May-20 18:28N 51°15' E 004°22'0 0.0
2017-May-20 17:58N 51°15' E 004°22'0 0.0
2017-May-20 17:28N 51°15' E 004°22'0 0.0
2017-May-20 16:58N 51°15' E 004°22'0 0.0
2017-May-20 16:28N 51°15' E 004°22'0 0.0
2017-May-20 15:58N 51°15' E 004°22'0 0.0
2017-May-20 15:28N 51°15' E 004°22'0 0.0
2017-May-20 14:58N 51°15' E 004°22'0 0.0
2017-May-20 13:58N 51°15' E 004°22'0 0.0
2017-May-20 13:28N 51°15' E 004°22'0 0.0
2017-May-20 12:58N 51°15' E 004°22'0 0.0
2017-May-20 12:28N 51°15' E 004°22'0 0.0
2017-May-20 11:58N 51°15' E 004°22'0 0.0
2017-May-20 11:25N 51°15' E 004°22'0 0.0
2017-May-20 10:55N 51°15' E 004°22'0 0.0
2017-May-20 10:28N 51°15' E 004°22'0 0.0
2017-May-20 09:55N 51°15' E 004°22'0 0.0
2017-May-20 09:28N 51°15' E 004°22'0 0.0
2017-May-20 08:55N 51°15' E 004°22'0 0.0
2017-May-20 08:28N 51°15' E 004°22'0 0.0
2017-May-20 07:58N 51°15' E 004°22'0 0.0
2017-May-20 07:28N 51°15' E 004°22'0 0.0
2017-May-20 06:49N 51°15' E 004°22'0 0.0
2017-May-20 06:22N 51°15' E 004°22'0 0.0
2017-May-20 05:58N 51°15' E 004°22'0 0.0
2017-May-20 05:28N 51°15' E 004°22'0 0.0
2017-May-20 04:58N 51°15' E 004°22'0 0.0
2017-May-20 04:25N 51°15' E 004°22'0 0.0
2017-May-20 03:55N 51°15' E 004°22'0 0.0
2017-May-20 03:25N 51°15' E 004°22'0 0.0
2017-May-20 02:55N 51°15' E 004°22'0 0.0
2017-May-20 02:25N 51°15' E 004°22'0 0.0
2017-May-20 01:55N 51°15' E 004°22'0 0.8
2017-May-20 01:30N 51°16' E 004°21'2 4.8
2017-May-20 01:00N 51°18' E 004°20'0 0.0
2017-May-20 00:29N 51°18' E 004°20'0 0.0
2017-May-18 19:32N 51°18' E 004°20'0 0.0
2017-May-18 19:30N 51°18' E 004°20'1 2.0
2017-May-18 19:00N 51°17' E 004°21'0 0.9
2017-May-18 18:31N 51°17' E 004°20'0 0.0
2017-May-18 18:00N 51°17' E 004°20'0 0.8
2017-May-18 17:31N 51°17' E 004°20'3 6.1
2017-May-18 17:00N 51°14' E 004°22'3 6.5
2017-May-18 16:30N 51°11' E 004°20'2 4.6
2017-May-18 16:00N 51°09' E 004°20'0 0.0
2017-May-18 06:31N 51°09' E 004°20'0 0.2
2017-May-18 06:00N 51°09' E 004°20'4 7.0
2017-May-18 05:30N 51°12' E 004°22'2 4.5
2017-May-18 05:00N 51°14' E 004°21'5 9.3
2017-May-18 04:30N 51°18' E 004°17'612.2
2017-May-18 04:01N 51°24' E 004°12'612.7
2017-May-18 03:30N 51°23' E 004°02'3 6.9
2017-May-18 03:00N 51°23' E 003°57'713.8
2017-May-18 02:31N 51°22' E 003°46'713.1
2017-May-18 02:01N 51°26' E 003°39'611.2
2017-May-18 01:30N 51°29' E 003°30'714.0
2017-May-18 01:00N 51°34' E 003°24'713.3
2017-May-18 00:29N 51°40' E 003°18'24 2.7
2017-May-17 15:35N 52°03' E 003°29'112.3
2017-May-17 15:28N 52°03' E 003°32'612.4
2017-May-17 15:00N 52°03' E 003°41'1212.5
2017-May-17 14:00N 52°00' E 004°00'713.3
2017-May-17 13:31N 51°57' E 004°10'612.8
2017-May-17 13:00N 51°53' E 004°18'2 3.4
2017-May-17 12:30N 51°52' E 004°16'0 0.0
2017-May-17 11:55N 51°52' E 004°16'0 0.0
2017-May-16 13:39N 51°52' E 004°16'0 0.0
2017-May-16 13:30N 51°52' E 004°16'1 1.2
2017-May-16 13:01N 51°53' E 004°17'2 4.0
2017-May-16 12:30N 51°55' E 004°15'611.2
2017-May-16 12:00N 51°58' E 004°08'611.7
2017-May-16 11:30N 51°60' E 003°59'712.5
2017-May-16 10:59N 52°03' E 003°49'613.4
2017-May-16 10:30N 52°09' E 003°46'2 0.2
2017-May-16 01:53N 52°10' E 003°44'0 0.0
2017-May-16 01:29N 52°10' E 003°44'0 0.0
2017-May-16 00:59N 52°10' E 003°44'0 0.0
2017-May-16 00:29N 52°10' E 003°44'0 0.0
2017-May-15 23:59N 52°10' E 003°44'0 0.0
2017-May-15 23:26N 52°10' E 003°44'0 0.0
2017-May-15 22:59N 52°10' E 003°44'0 0.0
2017-May-15 22:26N 52°10' E 003°44'2 0.3
2017-May-15 17:12N 52°11' E 003°45'7 8.1
2017-May-15 16:23N 52°18' E 003°47'5 9.1
2017-May-15 15:51N 52°23' E 003°49'5 9.7
2017-May-15 15:18N 52°28' E 003°51'1512.1
2017-May-15 14:04N 52°43' E 003°55'1111.8
2017-May-15 13:09N 52°53' E 003°59'711.2
2017-May-15 12:30N 52°60' E 004°04'611.6
2017-May-15 12:00N 53°04' E 004°11'15012.1
2017-May-14 23:39N 54°01' E 008°04'611.5
2017-May-14 23:10N 54°00' E 008°13'1211.2
2017-May-14 22:04N 53°58' E 008°34'112.8
2017-May-14 21:58N 53°58' E 008°36'714.0
2017-May-14 21:30N 53°53' E 008°43'714.6
2017-May-14 21:00N 53°51' E 008°55'815.7
2017-May-14 20:30N 53°53' E 009°08'1 1.8
2017-May-14 20:00N 53°54' E 009°09'1 1.6
2017-May-14 19:30N 53°54' E 009°10'0 0.6
2017-May-14 19:00N 53°54' E 009°10'2 4.6
2017-May-14 18:30N 53°56' E 009°13'4 7.3
2017-May-14 18:00N 53°59' E 009°17'4 8.2
2017-May-14 17:30N 54°03' E 009°18'  

Dump ship's entire track history